createdAt,value
2023-11-25T00:00:53.246Z,2.07
2023-11-25T00:03:19.651Z,2.33
2023-11-25T00:05:46.110Z,2.67
2023-11-25T00:08:12.472Z,2.63
2023-11-25T00:10:39.608Z,2.20
2023-11-25T00:13:07.032Z,2.37
2023-11-25T00:15:33.601Z,2.30
2023-11-25T00:18:00.043Z,2.07
2023-11-25T00:20:26.610Z,2.30
2023-11-25T00:22:53.672Z,2.30
2023-11-25T00:25:20.847Z,2.93
2023-11-25T00:27:47.572Z,2.43
2023-11-25T00:30:15.346Z,2.30
2023-11-25T00:32:42.548Z,2.10
2023-11-25T00:35:09.882Z,1.80
2023-11-25T00:37:36.718Z,2.13
2023-11-25T00:40:06.114Z,1.83
2023-11-25T00:42:32.565Z,1.83
2023-11-25T00:44:59.598Z,2.27
2023-11-25T00:47:28.601Z,1.80
2023-11-25T00:49:55.131Z,2.00
2023-11-25T00:52:21.502Z,1.90
2023-11-25T00:54:47.851Z,2.10
2023-11-25T00:57:14.208Z,2.00
2023-11-25T00:59:40.535Z,1.97
2023-11-25T01:02:06.975Z,2.33
2023-11-25T01:04:33.449Z,2.37
2023-11-25T01:06:59.813Z,2.00
2023-11-25T01:09:29.366Z,2.30
2023-11-25T01:11:56.567Z,2.60
2023-11-25T01:14:23.036Z,1.60
2023-11-25T01:16:53.001Z,1.73
2023-11-25T01:19:19.439Z,2.43
2023-11-25T01:21:45.953Z,1.60
2023-11-25T01:24:12.764Z,2.13
2023-11-25T01:26:42.143Z,1.60
2023-11-25T01:29:08.710Z,1.70
2023-11-25T01:31:35.189Z,1.93
2023-11-25T01:34:02.717Z,2.07
2023-11-25T01:36:29.240Z,1.90
2023-11-25T01:38:55.581Z,1.80
2023-11-25T01:41:21.933Z,1.90
2023-11-25T01:43:48.548Z,1.70
2023-11-25T01:46:27.651Z,2.10
2023-11-25T01:48:54.216Z,1.40
2023-11-25T01:51:20.918Z,1.80
2023-11-25T01:53:47.300Z,2.10
2023-11-25T01:56:15.336Z,1.70
2023-11-25T01:58:41.734Z,1.73
2023-11-25T02:01:08.430Z,1.97
2023-11-25T02:03:34.920Z,2.27
2023-11-25T02:06:01.273Z,2.87
2023-11-25T02:08:27.633Z,2.57
2023-11-25T02:10:55.012Z,2.50
2023-11-25T02:13:24.188Z,2.33
2023-11-25T02:15:51.726Z,1.87
2023-11-25T02:18:18.110Z,2.50
2023-11-25T02:20:46.122Z,2.33
2023-11-25T02:23:26.159Z,2.20
2023-11-25T02:25:53.766Z,2.40
2023-11-25T02:28:21.037Z,1.83
2023-11-25T02:30:48.442Z,2.43
2023-11-25T02:33:15.829Z,1.87
2023-11-25T02:35:43.721Z,1.77
2023-11-25T02:38:13.435Z,2.13
2023-11-25T02:40:41.427Z,2.40
2023-11-25T02:43:12.275Z,1.90
2023-11-25T02:45:39.949Z,2.07
2023-11-25T02:48:07.176Z,1.70
2023-11-25T02:50:36.546Z,1.60
2023-11-25T02:53:05.486Z,1.53
2023-11-25T02:55:31.849Z,1.23
2023-11-25T02:57:58.221Z,1.53
2023-11-25T03:00:24.575Z,1.90
2023-11-25T03:02:54.739Z,2.13
2023-11-25T03:05:23.412Z,1.23
2023-11-25T03:07:51.550Z,1.67
2023-11-25T03:10:18.163Z,1.80
2023-11-25T03:12:48.615Z,1.60
2023-11-25T03:15:16.457Z,1.50
2023-11-25T03:17:42.853Z,1.97
2023-11-25T03:20:09.707Z,1.53
2023-11-25T03:22:36.157Z,1.87
2023-11-25T03:25:02.995Z,1.50
2023-11-25T03:27:32.302Z,1.60
2023-11-25T03:30:08.078Z,1.50
2023-11-25T03:32:35.840Z,1.57
2023-11-25T03:35:02.473Z,1.83
2023-11-25T03:37:28.895Z,1.70
2023-11-25T03:39:55.257Z,1.30
2023-11-25T03:42:21.647Z,1.80
2023-11-25T03:44:48.413Z,1.80
2023-11-25T03:47:14.893Z,1.53
2023-11-25T03:49:41.585Z,1.40
2023-11-25T03:52:08.102Z,1.77
2023-11-25T03:54:34.536Z,1.70
2023-11-25T03:57:00.888Z,1.57
2023-11-25T03:59:27.317Z,1.43
2023-11-25T04:01:53.869Z,1.73
2023-11-25T04:04:20.519Z,1.47
2023-11-25T04:06:48.278Z,2.80
2023-11-25T04:09:14.863Z,1.70
2023-11-25T04:11:44.360Z,1.87
2023-11-25T04:14:10.802Z,1.90
2023-11-25T04:16:37.264Z,1.53
2023-11-25T04:19:04.404Z,1.77
2023-11-25T04:21:30.766Z,1.60
2023-11-25T04:23:57.288Z,1.70
2023-11-25T04:26:25.814Z,1.70
2023-11-25T04:28:52.484Z,1.60
2023-11-25T04:31:19.022Z,1.50
2023-11-25T04:33:45.809Z,1.90
2023-11-25T04:36:13.064Z,1.70
2023-11-25T04:38:40.758Z,1.50
2023-11-25T04:41:07.263Z,1.67
2023-11-25T04:43:33.692Z,1.60
2023-11-25T04:46:03.341Z,1.53
2023-11-25T04:48:29.793Z,1.90
2023-11-25T04:50:56.410Z,1.53
2023-11-25T04:53:22.953Z,1.67
2023-11-25T04:55:49.514Z,1.90
2023-11-25T04:58:16.029Z,1.50
2023-11-25T05:00:42.443Z,1.90
2023-11-25T05:03:09.440Z,1.77
2023-11-25T05:05:35.905Z,1.73
2023-11-25T05:08:02.309Z,2.20
2023-11-25T05:10:29.588Z,2.03
2023-11-25T05:12:56.173Z,1.77
2023-11-25T05:15:26.507Z,1.60
2023-11-25T05:17:56.048Z,1.67
2023-11-25T05:20:22.772Z,2.10
2023-11-25T05:22:49.428Z,2.20
2023-11-25T05:25:16.847Z,1.90
2023-11-25T05:27:43.867Z,1.87
2023-11-25T05:30:13.933Z,1.80
2023-11-25T05:32:44.066Z,1.60
2023-11-25T05:35:12.362Z,1.67
2023-11-25T05:37:38.866Z,1.70
2023-11-25T05:40:09.741Z,1.80
2023-11-25T05:42:38.386Z,1.57
2023-11-25T05:45:09.619Z,1.70
2023-11-25T05:47:36.076Z,1.90
2023-11-25T05:50:03.080Z,1.40
2023-11-25T05:52:29.506Z,1.60
2023-11-25T05:54:56.927Z,1.83
2023-11-25T05:57:23.762Z,1.90
2023-11-25T05:59:50.135Z,2.43
2023-11-25T06:02:16.688Z,2.03
2023-11-25T06:04:43.768Z,1.70
2023-11-25T06:07:10.577Z,2.00
2023-11-25T06:09:36.924Z,1.80
2023-11-25T06:12:03.419Z,1.73
2023-11-25T06:14:33.899Z,2.40
2023-11-25T06:17:01.620Z,3.77
2023-11-25T06:19:30.292Z,3.57
2023-11-25T06:21:56.788Z,3.70
2023-11-25T06:24:23.250Z,3.80
2023-11-25T06:26:51.147Z,3.40
2023-11-25T06:29:17.678Z,2.93
2023-11-25T06:31:46.652Z,2.53
2023-11-25T06:34:13.324Z,2.90
2023-11-25T06:36:41.103Z,2.17
2023-11-25T06:39:08.895Z,2.40
2023-11-25T06:41:35.448Z,2.80
2023-11-25T06:44:02.615Z,2.80
2023-11-25T06:46:29.203Z,2.57
2023-11-25T06:48:55.675Z,2.40
2023-11-25T06:51:22.041Z,2.27
2023-11-25T06:53:48.404Z,2.80
2023-11-25T06:56:17.846Z,2.67
2023-11-25T06:58:44.210Z,3.27
2023-11-25T07:01:17.396Z,3.17
2023-11-25T07:03:43.819Z,2.80
2023-11-25T07:06:10.239Z,2.47
2023-11-25T07:08:36.630Z,2.80
2023-11-25T07:11:06.276Z,2.27
2023-11-25T07:13:33.402Z,2.23
2023-11-25T07:16:02.036Z,1.80
2023-11-25T07:18:28.460Z,2.00
2023-11-25T07:20:56.608Z,2.27
2023-11-25T07:23:23.669Z,2.37
2023-11-25T07:25:50.196Z,2.50
2023-11-25T07:28:17.233Z,2.23
2023-11-25T07:30:45.358Z,2.50
2023-11-25T07:33:11.830Z,2.80
2023-11-25T07:35:38.906Z,2.80
2023-11-25T07:38:05.353Z,2.77
2023-11-25T07:40:31.789Z,3.00
2023-11-25T07:42:59.453Z,3.00
2023-11-25T07:45:26.776Z,2.90
2023-11-25T07:47:54.047Z,2.60
2023-11-25T07:50:20.748Z,2.30
2023-11-25T07:52:47.233Z,2.33
2023-11-25T07:55:13.628Z,2.13
2023-11-25T07:57:40.707Z,2.63
2023-11-25T08:00:16.717Z,2.30
2023-11-25T08:02:45.919Z,1.90
2023-11-25T08:05:12.403Z,3.37
2023-11-25T08:07:38.897Z,4.70
2023-11-25T08:10:07.726Z,3.03
2023-11-25T08:12:34.307Z,3.40
2023-11-25T08:15:00.698Z,2.93
2023-11-25T08:17:28.282Z,2.73
2023-11-25T08:19:54.718Z,3.20
2023-11-25T08:22:21.113Z,3.13
2023-11-25T08:24:47.475Z,3.10
2023-11-25T08:27:14.162Z,4.17
2023-11-25T08:29:42.900Z,6.70
2023-11-25T08:32:09.473Z,4.17
2023-11-25T08:34:35.862Z,3.93
2023-11-25T08:37:04.833Z,4.13
2023-11-25T08:39:33.826Z,2.93
2023-11-25T08:42:00.419Z,2.50
2023-11-25T08:44:28.163Z,2.50
2023-11-25T08:46:56.162Z,6.00
2023-11-25T08:49:23.410Z,2.77
2023-11-25T08:51:52.034Z,3.10
2023-11-25T08:54:19.511Z,2.90
2023-11-25T08:56:46.772Z,2.40
2023-11-25T08:59:21.636Z,2.10
2023-11-25T09:01:49.546Z,2.10
2023-11-25T09:04:26.519Z,2.90
2023-11-25T09:06:53.764Z,2.50
2023-11-25T09:09:21.681Z,2.20
2023-11-25T09:11:51.699Z,2.13
2023-11-25T09:14:20.085Z,2.30
2023-11-25T09:16:47.082Z,2.57
2023-11-25T09:19:14.531Z,2.93
2023-11-25T09:21:42.271Z,2.10
2023-11-25T09:24:08.968Z,2.27
2023-11-25T09:26:35.307Z,2.03
2023-11-25T09:29:01.680Z,2.00
2023-11-25T09:31:28.246Z,2.57
2023-11-25T09:33:55.686Z,2.43
2023-11-25T09:36:24.153Z,3.27
2023-11-25T09:38:50.599Z,2.30
2023-11-25T09:41:17.096Z,2.53
2023-11-25T09:43:43.968Z,1.83
2023-11-25T09:46:10.831Z,2.07
2023-11-25T09:48:37.198Z,2.00
2023-11-25T09:51:04.344Z,2.13
2023-11-25T09:53:34.130Z,2.20
2023-11-25T09:56:05.498Z,2.47
2023-11-25T09:58:38.434Z,2.57
2023-11-25T10:01:13.082Z,2.47
2023-11-25T10:03:44.281Z,2.57
2023-11-25T10:06:10.962Z,2.20
2023-11-25T10:08:37.365Z,1.97
2023-11-25T10:11:08.973Z,2.23
2023-11-25T10:13:36.726Z,2.90
2023-11-25T10:16:04.239Z,2.10
2023-11-25T10:18:31.741Z,2.20
2023-11-25T10:20:59.278Z,2.07
2023-11-25T10:23:26.960Z,2.20
2023-11-25T10:25:54.280Z,1.77
2023-11-25T10:28:22.345Z,2.10
2023-11-25T10:30:56.583Z,2.03
2023-11-25T10:33:29.741Z,1.70
2023-11-25T10:35:57.156Z,1.80
2023-11-25T10:38:28.227Z,2.23
2023-11-25T10:40:59.973Z,2.20
2023-11-25T10:43:27.569Z,2.60
2023-11-25T10:46:10.838Z,2.20
2023-11-25T10:48:41.141Z,1.80
2023-11-25T10:51:09.435Z,1.83
2023-11-25T10:53:38.887Z,1.90
2023-11-25T10:56:05.785Z,2.13
2023-11-25T10:58:32.434Z,1.93
2023-11-25T11:00:59.538Z,3.77
2023-11-25T11:03:41.787Z,1.87
2023-11-25T11:06:10.960Z,3.20
2023-11-25T11:08:44.291Z,2.07
2023-11-25T11:11:18.045Z,1.97
2023-11-25T11:13:53.232Z,2.30
2023-11-25T11:16:58.484Z,2.07
2023-11-25T11:19:43.671Z,1.67
2023-11-25T11:22:13.766Z,2.30
2023-11-25T11:24:59.585Z,2.37
2023-11-25T11:27:31.058Z,2.63
2023-11-25T11:30:09.993Z,2.30
2023-11-25T11:32:36.786Z,2.10
2023-11-25T11:35:04.067Z,1.97
2023-11-25T11:37:42.444Z,2.00
2023-11-25T11:40:09.025Z,1.83
2023-11-25T11:42:35.860Z,2.17
2023-11-25T11:45:12.732Z,1.80
2023-11-25T11:47:40.866Z,1.70
2023-11-25T11:50:09.877Z,2.33
2023-11-25T11:52:47.175Z,1.80
2023-11-25T11:55:32.543Z,1.80
2023-11-25T11:58:14.489Z,1.73
2023-11-25T12:01:00.934Z,2.30
2023-11-25T12:03:27.854Z,1.73
2023-11-25T12:05:54.573Z,1.50
2023-11-25T12:08:21.710Z,1.70
2023-11-25T12:10:48.794Z,1.63
2023-11-25T12:13:32.262Z,1.57
2023-11-25T12:16:04.658Z,1.60
2023-11-25T12:18:33.318Z,1.50
2023-11-25T12:21:03.620Z,2.00
2023-11-25T12:23:41.180Z,1.73
2023-11-25T12:26:18.438Z,1.80
2023-11-25T12:28:44.936Z,1.80
2023-11-25T12:31:11.349Z,1.53
2023-11-25T12:33:37.755Z,1.70
2023-11-25T12:36:04.252Z,1.90
2023-11-25T12:38:32.720Z,1.60
2023-11-25T12:40:59.230Z,1.47
2023-11-25T12:43:25.667Z,1.40
2023-11-25T12:45:52.277Z,1.97
2023-11-25T12:48:30.608Z,1.60
2023-11-25T12:51:07.798Z,1.50
2023-11-25T12:53:35.941Z,1.33
2023-11-25T12:56:02.555Z,1.70
2023-11-25T12:58:29.113Z,1.27
2023-11-25T13:00:57.777Z,1.50
2023-11-25T13:03:25.635Z,1.20
2023-11-25T13:05:58.306Z,1.80
2023-11-25T13:08:28.920Z,1.70
2023-11-25T13:10:56.846Z,1.00
2023-11-25T13:13:24.147Z,1.10
2023-11-25T13:15:51.232Z,1.27
2023-11-25T13:18:17.568Z,1.37
2023-11-25T13:20:43.899Z,1.63
2023-11-25T13:23:11.765Z,1.00
2023-11-25T13:25:38.186Z,1.13
2023-11-25T13:28:04.744Z,1.20
2023-11-25T13:30:33.432Z,1.10
2023-11-25T13:32:59.829Z,1.30
2023-11-25T13:35:26.268Z,1.03
2023-11-25T13:37:54.831Z,1.20
2023-11-25T13:40:21.212Z,1.20
2023-11-25T13:42:47.958Z,1.30
2023-11-25T13:45:14.806Z,2.30
2023-11-25T13:47:43.287Z,1.37
2023-11-25T13:50:11.578Z,1.23
2023-11-25T13:52:38.827Z,1.30
2023-11-25T13:55:06.548Z,1.50
2023-11-25T13:57:32.908Z,1.20
2023-11-25T13:59:59.972Z,1.40
2023-11-25T14:02:28.757Z,1.40
2023-11-25T14:04:55.331Z,1.57
2023-11-25T14:07:22.798Z,1.20
2023-11-25T14:09:49.184Z,1.87
2023-11-25T14:12:15.529Z,1.10
2023-11-25T14:14:42.131Z,1.20
2023-11-25T14:17:12.239Z,1.80
2023-11-25T14:19:40.167Z,1.70
2023-11-25T14:22:06.903Z,1.70
2023-11-25T14:24:33.333Z,1.87
2023-11-25T14:27:01.852Z,2.87
2023-11-25T14:29:28.231Z,3.33
2023-11-25T14:31:54.554Z,6.93
2023-11-25T14:34:21.901Z,3.33
2023-11-25T14:36:48.377Z,4.63
2023-11-25T14:39:19.451Z,9.40
2023-11-25T14:41:48.815Z,8.03
2023-11-25T14:44:15.413Z,9.27
2023-11-25T14:46:42.635Z,3.90
2023-11-25T14:49:09.044Z,3.07
2023-11-25T14:51:35.638Z,4.80
2023-11-25T14:54:02.167Z,3.17
2023-11-25T14:56:28.615Z,3.97
2023-11-25T14:58:55.030Z,3.30
2023-11-25T15:01:21.986Z,14.17
2023-11-25T15:03:48.594Z,27.80
2023-11-25T15:06:14.981Z,6.17
2023-11-25T15:08:41.319Z,2.10
2023-11-25T15:11:08.440Z,1.90
2023-11-25T15:13:34.817Z,2.40
2023-11-25T15:16:01.818Z,2.57
2023-11-25T15:18:29.090Z,10.90
2023-11-25T15:20:55.708Z,5.07
2023-11-25T15:23:22.902Z,3.80
2023-11-25T15:25:49.602Z,2.77
2023-11-25T15:28:17.371Z,2.73
2023-11-25T15:30:44.170Z,2.30
2023-11-25T15:33:12.650Z,2.60
2023-11-25T15:35:39.355Z,2.93
2023-11-25T15:38:05.758Z,2.60
2023-11-25T15:40:32.223Z,2.80
2023-11-25T15:42:58.575Z,3.07
2023-11-25T15:45:24.937Z,3.10
2023-11-25T15:47:51.770Z,2.90
2023-11-25T15:50:18.288Z,2.60
2023-11-25T15:52:44.683Z,1.93
2023-11-25T15:55:12.504Z,2.10
2023-11-25T15:57:39.720Z,2.30
2023-11-25T16:00:14.393Z,2.50
2023-11-25T16:02:41.992Z,2.70
2023-11-25T16:05:13.193Z,3.67
2023-11-25T16:07:39.588Z,2.83
2023-11-25T16:10:08.595Z,2.60
2023-11-25T16:12:34.943Z,2.80
2023-11-25T16:15:01.475Z,2.17
2023-11-25T16:17:28.326Z,2.80
2023-11-25T16:19:54.883Z,2.57
2023-11-25T16:22:21.256Z,2.50
2023-11-25T16:24:47.610Z,2.70
2023-11-25T16:27:13.987Z,3.07
2023-11-25T16:29:40.325Z,2.40
2023-11-25T16:32:07.064Z,3.27
2023-11-25T16:34:33.486Z,4.07
2023-11-25T16:36:59.881Z,3.60
2023-11-25T16:39:29.048Z,4.40
2023-11-25T16:41:55.721Z,4.13
2023-11-25T16:44:22.388Z,8.43
2023-11-25T16:46:48.941Z,17.93
2023-11-25T16:49:15.784Z,20.20
2023-11-25T16:51:46.271Z,14.87
2023-11-25T16:54:13.367Z,6.53
2023-11-25T16:56:39.732Z,7.77
2023-11-25T16:59:06.286Z,4.00
2023-11-25T17:01:32.870Z,6.03
2023-11-25T17:03:59.434Z,3.87
2023-11-25T17:06:25.899Z,4.07
2023-11-25T17:08:53.041Z,4.73
2023-11-25T17:11:19.398Z,5.50
2023-11-25T17:13:45.775Z,4.90
2023-11-25T17:16:16.195Z,4.40
2023-11-25T17:18:42.525Z,3.87
2023-11-25T17:21:08.868Z,3.90
2023-11-25T17:23:36.036Z,4.53
2023-11-25T17:26:02.755Z,4.17
2023-11-25T17:28:30.572Z,4.10
2023-11-25T17:30:56.947Z,4.90
2023-11-25T17:33:23.398Z,3.70
2023-11-25T17:35:50.488Z,3.90
2023-11-25T17:38:18.497Z,5.13
2023-11-25T17:40:44.952Z,4.77
2023-11-25T17:43:11.475Z,4.67
2023-11-25T17:45:37.811Z,4.50
2023-11-25T17:48:04.561Z,4.00
2023-11-25T17:50:30.903Z,4.30
2023-11-25T17:53:06.757Z,4.30
2023-11-25T17:55:38.677Z,3.97
2023-11-25T17:58:05.047Z,3.93
2023-11-25T18:00:31.608Z,3.57
2023-11-25T18:02:58.118Z,4.27
2023-11-25T18:05:24.594Z,3.10
2023-11-25T18:07:51.514Z,3.30
2023-11-25T18:10:17.939Z,4.20
2023-11-25T18:12:45.884Z,3.37
2023-11-25T18:15:14.151Z,3.33
2023-11-25T18:17:40.578Z,3.80
2023-11-25T18:20:07.691Z,3.50
2023-11-25T18:22:34.156Z,3.40
2023-11-25T18:25:00.577Z,2.80
2023-11-25T18:27:27.268Z,3.60
2023-11-25T18:29:53.927Z,3.30
2023-11-25T18:32:20.273Z,3.40
2023-11-25T18:34:46.635Z,4.00
2023-11-25T18:37:13.234Z,3.90
2023-11-25T18:39:39.997Z,3.77
2023-11-25T18:42:06.423Z,3.33
2023-11-25T18:44:32.777Z,3.93
2023-11-25T18:46:59.291Z,4.60
2023-11-25T18:49:25.715Z,4.30
2023-11-25T18:51:52.044Z,3.90
2023-11-25T18:54:18.734Z,3.60
2023-11-25T18:56:45.099Z,3.67
2023-11-25T18:59:11.617Z,4.07
2023-11-25T19:01:39.838Z,3.77
2023-11-25T19:04:07.291Z,3.30
2023-11-25T19:06:34.407Z,2.73
2023-11-25T19:09:01.370Z,2.70
2023-11-25T19:11:28.357Z,3.67
2023-11-25T19:13:54.923Z,4.00
2023-11-25T19:16:22.195Z,3.67
2023-11-25T19:18:49.486Z,4.27
2023-11-25T19:21:16.387Z,4.80
2023-11-25T19:23:43.074Z,4.00
2023-11-25T19:26:10.505Z,3.03
2023-11-25T19:28:37.406Z,3.33
2023-11-25T19:31:04.010Z,4.07
2023-11-25T19:33:30.573Z,3.47
2023-11-25T19:35:57.151Z,3.47
2023-11-25T19:38:23.499Z,3.10
2023-11-25T19:40:49.891Z,3.60
2023-11-25T19:43:16.268Z,3.43
2023-11-25T19:45:42.642Z,4.20
2023-11-25T19:48:09.180Z,3.40
2023-11-25T19:50:37.422Z,3.47
2023-11-25T19:53:04.568Z,3.50
2023-11-25T19:55:30.956Z,3.17
2023-11-25T19:57:57.353Z,3.10
2023-11-25T20:00:25.009Z,3.00
2023-11-25T20:02:51.553Z,2.90
2023-11-25T20:05:18.218Z,3.00
2023-11-25T20:07:46.414Z,2.77
2023-11-25T20:10:13.423Z,3.40
2023-11-25T20:12:40.168Z,3.03
2023-11-25T20:15:07.445Z,3.80
2023-11-25T20:17:34.023Z,2.70
2023-11-25T20:20:00.842Z,2.87
2023-11-25T20:22:27.270Z,2.90
2023-11-25T20:24:53.703Z,2.80
2023-11-25T20:27:20.412Z,2.83
2023-11-25T20:29:47.228Z,2.67
2023-11-25T20:32:13.720Z,2.83
2023-11-25T20:34:40.276Z,2.80
2023-11-25T20:37:07.350Z,2.70
2023-11-25T20:39:34.256Z,2.70
2023-11-25T20:42:00.669Z,2.53
2023-11-25T20:44:27.092Z,3.10
2023-11-25T20:46:53.593Z,2.90
2023-11-25T20:49:20.156Z,3.63
2023-11-25T20:51:46.613Z,3.07
2023-11-25T20:54:13.043Z,3.27
2023-11-25T20:56:39.409Z,2.97
2023-11-25T20:59:06.552Z,3.10
2023-11-25T21:01:32.935Z,2.63
2023-11-25T21:03:59.473Z,2.70
2023-11-25T21:06:25.878Z,2.80
2023-11-25T21:08:52.322Z,2.67
2023-11-25T21:11:18.680Z,2.80
2023-11-25T21:13:45.236Z,2.30
2023-11-25T21:16:15.193Z,2.60
2023-11-25T21:18:43.292Z,2.30
2023-11-25T21:21:09.731Z,2.80
2023-11-25T21:23:39.624Z,2.80
2023-11-25T21:26:07.114Z,2.60
2023-11-25T21:28:33.582Z,2.93
2023-11-25T21:30:59.940Z,2.80
2023-11-25T21:33:26.298Z,2.30
2023-11-25T21:35:54.367Z,2.60
2023-11-25T21:38:20.792Z,3.10
2023-11-25T21:40:47.187Z,2.77
2023-11-25T21:43:13.553Z,2.57
2023-11-25T21:45:40.078Z,2.80
2023-11-25T21:48:06.580Z,2.60
2023-11-25T21:50:33.470Z,2.40
2023-11-25T21:53:01.179Z,2.60
2023-11-25T21:55:27.802Z,2.40
2023-11-25T21:57:54.179Z,2.27
2023-11-25T22:00:20.756Z,2.40
2023-11-25T22:02:56.890Z,2.63
2023-11-25T22:05:23.377Z,2.50
2023-11-25T22:07:49.747Z,2.43
2023-11-25T22:10:24.754Z,2.57
2023-11-25T22:12:58.762Z,2.60
2023-11-25T22:15:25.487Z,2.80
2023-11-25T22:17:52.094Z,2.43
2023-11-25T22:20:18.597Z,2.80
2023-11-25T22:22:45.210Z,3.30
2023-11-25T22:25:13.795Z,2.43
2023-11-25T22:27:41.214Z,3.07
2023-11-25T22:30:09.042Z,2.77
2023-11-25T22:32:35.505Z,3.57
2023-11-25T22:35:02.036Z,4.43
2023-11-25T22:37:28.570Z,5.43
2023-11-25T22:39:55.071Z,3.40
2023-11-25T22:42:21.401Z,3.37
2023-11-25T22:44:47.742Z,2.70
2023-11-25T22:47:14.158Z,2.70
2023-11-25T22:49:40.542Z,3.07
2023-11-25T22:52:06.889Z,2.77
2023-11-25T22:54:36.255Z,9.70
2023-11-25T22:57:02.651Z,3.37
2023-11-25T22:59:29.097Z,2.80
2023-11-25T23:01:56.287Z,2.23
2023-11-25T23:04:22.799Z,2.47
2023-11-25T23:06:49.881Z,2.10
2023-11-25T23:09:16.287Z,2.20
2023-11-25T23:11:42.653Z,3.03
2023-11-25T23:14:09.077Z,2.43
2023-11-25T23:16:35.667Z,2.70
2023-11-25T23:19:02.056Z,2.37
2023-11-25T23:21:28.434Z,2.50
2023-11-25T23:23:56.198Z,2.27
2023-11-25T23:26:22.699Z,1.80
2023-11-25T23:28:49.351Z,1.87
2023-11-25T23:31:15.712Z,2.10
2023-11-25T23:33:42.120Z,2.13
2023-11-25T23:36:10.364Z,2.00
2023-11-25T23:38:36.790Z,2.10
2023-11-25T23:41:03.221Z,2.10
2023-11-25T23:43:31.160Z,1.70
2023-11-25T23:45:57.599Z,1.90
2023-11-25T23:48:24.413Z,2.10
2023-11-25T23:50:50.804Z,2.10
2023-11-25T23:53:17.204Z,2.13
2023-11-25T23:55:43.740Z,2.10
2023-11-25T23:58:10.194Z,2.33
